createdAt,value
2023-02-02T00:00:20.563Z,7.81
2023-02-02T00:00:41.595Z,7.81
2023-02-02T00:01:02.642Z,7.80
2023-02-02T00:01:23.690Z,7.81
2023-02-02T00:01:44.952Z,7.81
2023-02-02T00:02:05.987Z,7.81
2023-02-02T00:02:27.077Z,7.81
2023-02-02T00:02:48.134Z,7.81
2023-02-02T00:03:09.289Z,7.81
2023-02-02T00:03:30.378Z,7.82
2023-02-02T00:03:51.420Z,7.82
2023-02-02T00:04:12.525Z,7.82
2023-02-02T00:04:33.557Z,7.81
2023-02-02T00:04:54.616Z,7.81
2023-02-02T00:05:15.654Z,7.81
2023-02-02T00:05:36.729Z,7.82
2023-02-02T00:05:57.772Z,7.82
2023-02-02T00:06:18.825Z,7.81
2023-02-02T00:06:39.891Z,7.82
2023-02-02T00:07:00.976Z,7.82
2023-02-02T00:07:22.046Z,7.82
2023-02-02T00:07:43.093Z,7.82
2023-02-02T00:08:04.168Z,7.82
2023-02-02T00:08:25.234Z,7.83
2023-02-02T00:08:46.291Z,7.82
2023-02-02T00:09:07.347Z,7.82
2023-02-02T00:09:28.428Z,7.82
2023-02-02T00:09:49.495Z,7.82
2023-02-02T00:10:10.550Z,7.82
2023-02-02T00:10:31.613Z,7.82
2023-02-02T00:10:52.675Z,7.82
2023-02-02T00:11:13.743Z,7.82
2023-02-02T00:11:34.813Z,7.82
2023-02-02T00:11:55.879Z,7.83
2023-02-02T00:12:16.954Z,7.83
2023-02-02T00:12:38.013Z,7.82
2023-02-02T00:12:59.083Z,7.82
2023-02-02T00:13:20.141Z,7.83
2023-02-02T00:13:41.219Z,7.82
2023-02-02T00:14:02.381Z,7.84
2023-02-02T00:14:23.419Z,7.83
2023-02-02T00:14:44.470Z,7.83
2023-02-02T00:15:05.548Z,7.84
2023-02-02T00:15:26.636Z,7.83
2023-02-02T00:15:47.656Z,7.83
2023-02-02T00:16:08.743Z,7.83
2023-02-02T00:16:29.859Z,7.83
2023-02-02T00:16:50.912Z,7.83
2023-02-02T00:17:11.953Z,7.83
2023-02-02T00:17:33.181Z,7.83
2023-02-02T00:17:54.250Z,7.83
2023-02-02T00:18:15.300Z,7.83
2023-02-02T00:18:36.344Z,7.83
2023-02-02T00:18:57.407Z,7.83
2023-02-02T00:19:18.491Z,7.82
2023-02-02T00:19:39.514Z,7.82
2023-02-02T00:20:00.573Z,7.82
2023-02-02T00:20:21.648Z,7.83
2023-02-02T00:20:42.693Z,7.83
2023-02-02T00:21:03.763Z,7.83
2023-02-02T00:21:24.828Z,7.83
2023-02-02T00:21:45.912Z,7.82
2023-02-02T00:22:06.959Z,7.83
2023-02-02T00:22:28.015Z,7.83
2023-02-02T00:22:49.107Z,7.83
2023-02-02T00:23:10.179Z,7.83
2023-02-02T00:23:31.224Z,7.83
2023-02-02T00:23:52.284Z,7.83
2023-02-02T00:24:13.355Z,7.83
2023-02-02T00:24:34.401Z,7.83
2023-02-02T00:24:55.461Z,7.82
2023-02-02T00:25:16.527Z,7.83
2023-02-02T00:25:37.588Z,7.83
2023-02-02T00:25:58.693Z,7.82
2023-02-02T00:26:19.776Z,7.82
2023-02-02T00:26:40.859Z,7.82
2023-02-02T00:27:01.892Z,7.81
2023-02-02T00:27:22.946Z,7.82
2023-02-02T00:27:44.011Z,7.82
2023-02-02T00:28:05.230Z,7.82
2023-02-02T00:28:26.309Z,7.82
2023-02-02T00:28:47.348Z,7.82
2023-02-02T00:29:08.400Z,7.81
2023-02-02T00:29:29.448Z,7.82
2023-02-02T00:29:50.513Z,7.82
2023-02-02T00:30:11.651Z,7.83
2023-02-02T00:30:32.772Z,7.83
2023-02-02T00:30:53.848Z,7.83
2023-02-02T00:31:14.956Z,7.84
2023-02-02T00:31:36.046Z,7.83
2023-02-02T00:31:57.185Z,7.83
2023-02-02T00:32:18.200Z,7.83
2023-02-02T00:32:39.277Z,7.83
2023-02-02T00:33:00.326Z,7.84
2023-02-02T00:33:21.438Z,7.84
2023-02-02T00:33:42.492Z,7.83
2023-02-02T00:34:03.548Z,7.84
2023-02-02T00:34:24.604Z,7.83
2023-02-02T00:34:45.663Z,7.83
2023-02-02T00:35:06.719Z,7.84
2023-02-02T00:35:27.795Z,7.84
2023-02-02T00:35:48.892Z,7.84
2023-02-02T00:36:09.898Z,7.85
2023-02-02T00:36:30.960Z,7.85
2023-02-02T00:36:52.019Z,7.84
2023-02-02T00:37:13.065Z,7.84
2023-02-02T00:37:34.124Z,7.85
2023-02-02T00:37:55.198Z,7.84
2023-02-02T00:38:16.239Z,7.84
2023-02-02T00:38:37.461Z,7.84
2023-02-02T00:38:58.535Z,7.84
2023-02-02T00:39:19.577Z,7.84
2023-02-02T00:39:40.633Z,7.84
2023-02-02T00:40:01.696Z,7.85
2023-02-02T00:40:22.750Z,7.85
2023-02-02T00:40:43.829Z,7.85
2023-02-02T00:41:04.923Z,7.84
2023-02-02T00:41:25.994Z,7.85
2023-02-02T00:41:47.047Z,7.85
2023-02-02T00:42:08.092Z,7.85
2023-02-02T00:42:29.149Z,7.85
2023-02-02T00:42:50.212Z,7.84
2023-02-02T00:43:11.269Z,7.84
2023-02-02T00:43:32.360Z,7.83
2023-02-02T00:43:53.420Z,7.83
2023-02-02T00:44:14.484Z,7.84
2023-02-02T00:44:35.536Z,7.83
2023-02-02T00:44:56.607Z,7.85
2023-02-02T00:45:17.708Z,7.84
2023-02-02T00:45:38.756Z,7.84
2023-02-02T00:45:59.826Z,7.84
2023-02-02T00:46:20.853Z,7.84
2023-02-02T00:46:41.911Z,7.84
2023-02-02T00:47:02.981Z,7.83
2023-02-02T00:47:24.010Z,7.84
2023-02-02T00:47:45.080Z,7.84
2023-02-02T00:48:06.160Z,7.84
2023-02-02T00:48:27.211Z,7.84
2023-02-02T00:48:48.265Z,7.84
2023-02-02T00:49:09.354Z,7.84
2023-02-02T00:49:30.421Z,7.85
2023-02-02T00:49:51.475Z,7.84
2023-02-02T00:50:12.531Z,7.84
2023-02-02T00:50:33.602Z,7.84
2023-02-02T00:50:54.645Z,7.85
2023-02-02T00:51:15.746Z,7.85
2023-02-02T00:51:36.835Z,7.85
2023-02-02T00:51:57.865Z,7.85
2023-02-02T00:52:18.916Z,7.86
2023-02-02T00:52:39.977Z,7.85
2023-02-02T00:53:01.056Z,7.86
2023-02-02T00:53:22.118Z,7.86
2023-02-02T00:53:43.183Z,7.86
2023-02-02T00:54:04.235Z,7.86
2023-02-02T00:54:25.499Z,7.87
2023-02-02T00:54:46.523Z,7.86
2023-02-02T00:55:07.574Z,7.87
2023-02-02T00:55:28.628Z,7.86
2023-02-02T00:55:49.694Z,7.88
2023-02-02T00:56:10.750Z,7.87
2023-02-02T00:56:31.818Z,7.87
2023-02-02T00:56:52.993Z,7.87
2023-02-02T00:57:14.040Z,7.87
2023-02-02T00:57:35.084Z,7.87
2023-02-02T00:57:56.153Z,7.87
2023-02-02T00:58:17.210Z,7.87
2023-02-02T00:58:38.276Z,7.88
2023-02-02T00:58:59.354Z,7.88
2023-02-02T00:59:20.479Z,7.87
2023-02-02T00:59:41.695Z,7.88
2023-02-02T01:00:02.748Z,7.88
2023-02-02T01:00:23.833Z,7.88
2023-02-02T01:00:44.879Z,7.89
2023-02-02T01:01:05.923Z,7.88
2023-02-02T01:01:27.000Z,7.88
2023-02-02T01:01:48.118Z,7.89
2023-02-02T01:02:09.204Z,7.89
2023-02-02T01:02:30.335Z,7.89
2023-02-02T01:02:51.365Z,7.89
2023-02-02T01:03:12.458Z,7.88
2023-02-02T01:03:33.510Z,7.89
2023-02-02T01:03:54.594Z,7.89
2023-02-02T01:04:15.627Z,7.89
2023-02-02T01:04:36.861Z,7.90
2023-02-02T01:04:57.918Z,7.89
2023-02-02T01:05:18.999Z,7.90
2023-02-02T01:05:40.115Z,7.90
2023-02-02T01:06:01.132Z,7.90
2023-02-02T01:06:22.191Z,7.89
2023-02-02T01:06:43.250Z,7.90
2023-02-02T01:07:04.335Z,7.89
2023-02-02T01:07:25.379Z,7.89
2023-02-02T01:07:46.470Z,7.90
2023-02-02T01:08:07.507Z,7.89
2023-02-02T01:08:28.564Z,7.90
2023-02-02T01:08:49.649Z,7.89
2023-02-02T01:09:10.699Z,7.89
2023-02-02T01:09:31.768Z,7.90
2023-02-02T01:09:53.071Z,7.90
2023-02-02T01:10:14.090Z,7.90
2023-02-02T01:10:35.139Z,7.90
2023-02-02T01:10:56.196Z,7.89
2023-02-02T01:11:17.263Z,7.90
2023-02-02T01:11:38.313Z,7.90
2023-02-02T01:11:59.413Z,7.90
2023-02-02T01:12:20.427Z,7.90
2023-02-02T01:12:41.474Z,7.91
2023-02-02T01:13:02.557Z,7.90
2023-02-02T01:13:23.628Z,7.91
2023-02-02T01:13:44.705Z,7.91
2023-02-02T01:14:05.724Z,7.92
2023-02-02T01:14:26.819Z,7.92
2023-02-02T01:14:47.858Z,7.92
2023-02-02T01:15:08.937Z,7.92
2023-02-02T01:15:30.020Z,7.92
2023-02-02T01:15:51.062Z,7.92
2023-02-02T01:16:12.183Z,7.92
2023-02-02T01:16:33.312Z,7.92
2023-02-02T01:16:54.409Z,7.93
2023-02-02T01:17:15.454Z,7.93
2023-02-02T01:17:36.493Z,7.94
2023-02-02T01:17:57.546Z,7.94
2023-02-02T01:18:18.610Z,7.94
2023-02-02T01:18:39.672Z,7.94
2023-02-02T01:19:00.741Z,7.95
2023-02-02T01:19:21.785Z,7.95
2023-02-02T01:19:42.873Z,7.95
2023-02-02T01:20:03.931Z,7.95
2023-02-02T01:20:25.133Z,7.94
2023-02-02T01:20:46.192Z,7.95
2023-02-02T01:21:07.252Z,7.96
2023-02-02T01:21:28.311Z,7.96
2023-02-02T01:21:49.372Z,7.96
2023-02-02T01:22:10.425Z,7.96
2023-02-02T01:22:31.481Z,7.96
2023-02-02T01:22:52.566Z,7.96
2023-02-02T01:23:13.604Z,7.96
2023-02-02T01:23:34.664Z,7.96
2023-02-02T01:23:55.741Z,7.97
2023-02-02T01:24:16.790Z,7.97
2023-02-02T01:24:37.856Z,7.97
2023-02-02T01:24:58.939Z,7.97
2023-02-02T01:25:19.971Z,7.97
2023-02-02T01:25:41.198Z,7.98
2023-02-02T01:26:02.248Z,7.98
2023-02-02T01:26:23.340Z,7.99
2023-02-02T01:26:44.412Z,7.98
2023-02-02T01:27:05.443Z,7.99
2023-02-02T01:27:26.499Z,8.00
2023-02-02T01:27:47.640Z,7.99
2023-02-02T01:28:08.708Z,8.00
2023-02-02T01:28:29.752Z,8.00
2023-02-02T01:28:50.799Z,8.00
2023-02-02T01:29:11.862Z,8.00
2023-02-02T01:29:32.955Z,8.00
2023-02-02T01:29:54.004Z,8.00
2023-02-02T01:30:15.063Z,8.00
2023-02-02T01:30:36.227Z,8.01
2023-02-02T01:30:57.481Z,8.00
2023-02-02T01:31:18.585Z,8.01
2023-02-02T01:31:39.635Z,8.01
2023-02-02T01:32:00.767Z,8.01
2023-02-02T01:32:21.801Z,8.01
2023-02-02T01:32:42.854Z,8.01
2023-02-02T01:33:03.928Z,8.02
2023-02-02T01:33:24.975Z,8.02
2023-02-02T01:33:46.078Z,8.02
2023-02-02T01:34:07.114Z,8.02
2023-02-02T01:34:28.165Z,8.02
2023-02-02T01:34:49.274Z,8.02
2023-02-02T01:35:10.313Z,8.02
2023-02-02T01:35:31.343Z,8.02
2023-02-02T01:35:52.406Z,8.02
2023-02-02T01:36:13.669Z,8.02
2023-02-02T01:36:34.706Z,8.02
2023-02-02T01:36:55.773Z,8.02
2023-02-02T01:37:16.818Z,8.02
2023-02-02T01:37:37.900Z,8.02
2023-02-02T01:37:58.949Z,8.02
2023-02-02T01:38:20.007Z,8.02
2023-02-02T01:38:41.075Z,8.01
2023-02-02T01:39:02.115Z,8.01
2023-02-02T01:39:23.176Z,8.00
2023-02-02T01:39:44.259Z,8.00
2023-02-02T01:40:05.290Z,8.00
2023-02-02T01:40:26.353Z,8.00
2023-02-02T01:40:47.404Z,8.00
2023-02-02T01:41:08.457Z,8.00
2023-02-02T01:41:29.683Z,8.00
2023-02-02T01:41:50.753Z,7.99
2023-02-02T01:42:11.835Z,7.99
2023-02-02T01:42:32.861Z,7.99
2023-02-02T01:42:53.919Z,7.98
2023-02-02T01:43:14.986Z,7.97
2023-02-02T01:43:36.079Z,7.98
2023-02-02T01:43:57.167Z,7.98
2023-02-02T01:44:18.191Z,7.97
2023-02-02T01:44:39.307Z,7.97
2023-02-02T01:45:00.367Z,7.96
2023-02-02T01:45:21.541Z,7.96
2023-02-02T01:45:42.633Z,7.95
2023-02-02T01:46:03.708Z,7.95
2023-02-02T01:46:24.739Z,7.94
2023-02-02T01:46:45.944Z,7.94
2023-02-02T01:47:07.010Z,7.94
2023-02-02T01:47:28.047Z,7.93
2023-02-02T01:47:49.107Z,7.93
2023-02-02T01:48:10.167Z,7.92
2023-02-02T01:48:31.237Z,7.92
2023-02-02T01:48:52.309Z,7.92
2023-02-02T01:49:13.374Z,7.90
2023-02-02T01:49:34.414Z,7.90
2023-02-02T01:49:55.482Z,7.90
2023-02-02T01:50:16.531Z,7.89
2023-02-02T01:50:37.603Z,7.89
2023-02-02T01:50:58.654Z,7.88
2023-02-02T01:51:19.712Z,7.88
2023-02-02T01:51:40.760Z,7.87
2023-02-02T01:52:01.998Z,7.88
2023-02-02T01:52:23.041Z,7.86
2023-02-02T01:52:44.103Z,7.86
2023-02-02T01:53:05.165Z,7.84
2023-02-02T01:53:26.217Z,7.84
2023-02-02T01:53:47.282Z,7.84
2023-02-02T01:54:08.387Z,7.83
2023-02-02T01:54:29.414Z,7.83
2023-02-02T01:54:50.461Z,7.83
2023-02-02T01:55:11.532Z,7.81
2023-02-02T01:55:32.575Z,7.81
2023-02-02T01:55:53.630Z,7.81
2023-02-02T01:56:14.706Z,7.81
2023-02-02T01:56:35.765Z,7.81
2023-02-02T01:56:56.806Z,7.80
2023-02-02T01:57:18.028Z,7.80
2023-02-02T01:57:39.095Z,7.80
2023-02-02T01:58:00.148Z,7.79
2023-02-02T01:58:21.224Z,7.78
2023-02-02T01:58:42.284Z,7.78
2023-02-02T01:59:03.331Z,7.78
2023-02-02T01:59:24.401Z,7.77
2023-02-02T01:59:45.485Z,7.78
2023-02-02T02:00:06.544Z,7.77
2023-02-02T02:00:27.608Z,7.78
2023-02-02T02:00:48.670Z,7.77
2023-02-02T02:01:09.705Z,7.77
2023-02-02T02:01:30.841Z,7.77
2023-02-02T02:01:51.900Z,7.76
2023-02-02T02:02:12.991Z,7.75
2023-02-02T02:02:34.097Z,7.75
2023-02-02T02:02:55.148Z,7.74
2023-02-02T02:03:16.229Z,7.75
2023-02-02T02:03:37.302Z,7.74
2023-02-02T02:03:58.340Z,7.74
2023-02-02T02:04:19.395Z,7.74
2023-02-02T02:04:40.452Z,7.74
2023-02-02T02:05:01.507Z,7.74
2023-02-02T02:05:22.936Z,7.74
2023-02-02T02:05:44.253Z,7.74
2023-02-02T02:06:05.335Z,7.73
2023-02-02T02:06:26.404Z,7.73
2023-02-02T02:06:47.439Z,7.73
2023-02-02T02:07:08.514Z,7.73
2023-02-02T02:07:29.544Z,7.72
2023-02-02T02:07:50.621Z,7.72
2023-02-02T02:08:11.678Z,7.72
2023-02-02T02:08:32.753Z,7.72
2023-02-02T02:08:53.808Z,7.72
2023-02-02T02:09:14.856Z,7.72
2023-02-02T02:09:35.931Z,7.71
2023-02-02T02:09:57.049Z,7.71
2023-02-02T02:10:18.089Z,7.72
2023-02-02T02:10:39.149Z,7.70
2023-02-02T02:11:00.208Z,7.71
2023-02-02T02:11:21.280Z,7.70
2023-02-02T02:11:42.330Z,7.70
2023-02-02T02:12:03.388Z,7.70
2023-02-02T02:12:24.441Z,7.69
2023-02-02T02:12:45.499Z,7.70
2023-02-02T02:13:27.577Z,7.70
2023-02-02T02:13:48.628Z,7.69
2023-02-02T02:14:09.685Z,7.68
2023-02-02T02:14:30.740Z,7.69
2023-02-02T02:14:51.805Z,7.68
2023-02-02T02:15:12.859Z,7.68
2023-02-02T02:15:33.933Z,7.68
2023-02-02T02:15:55.018Z,7.68
2023-02-02T02:16:16.091Z,7.67
2023-02-02T02:16:37.233Z,7.68
2023-02-02T02:16:58.285Z,7.66
2023-02-02T02:17:19.354Z,7.67
2023-02-02T02:17:40.387Z,7.67
2023-02-02T02:18:01.444Z,7.66
2023-02-02T02:18:22.509Z,7.66
2023-02-02T02:18:43.573Z,7.66
2023-02-02T02:19:04.640Z,7.66
2023-02-02T02:19:25.686Z,7.65
2023-02-02T02:19:46.739Z,7.65
2023-02-02T02:20:07.820Z,7.64
2023-02-02T02:20:28.857Z,7.65
2023-02-02T02:20:49.913Z,7.65
2023-02-02T02:21:11.088Z,7.65
2023-02-02T02:21:32.170Z,7.64
2023-02-02T02:21:53.230Z,7.64
2023-02-02T02:22:14.290Z,7.64
2023-02-02T02:22:35.341Z,7.64
2023-02-02T02:22:56.398Z,7.64
2023-02-02T02:23:17.539Z,7.64
2023-02-02T02:23:38.554Z,7.63
2023-02-02T02:23:59.779Z,7.63
2023-02-02T02:24:20.833Z,7.63
2023-02-02T02:24:41.908Z,7.63
2023-02-02T02:25:02.942Z,7.63
2023-02-02T02:25:24.440Z,7.62
2023-02-02T02:25:45.735Z,7.62
2023-02-02T02:26:06.752Z,7.62
2023-02-02T02:26:27.868Z,7.61
2023-02-02T02:26:48.906Z,7.62
2023-02-02T02:27:09.955Z,7.61
2023-02-02T02:27:30.999Z,7.61
2023-02-02T02:27:52.066Z,7.60
2023-02-02T02:28:13.124Z,7.61
2023-02-02T02:28:34.181Z,7.60
2023-02-02T02:28:55.243Z,7.61
2023-02-02T02:29:16.342Z,7.60
2023-02-02T02:29:37.396Z,7.60
2023-02-02T02:29:58.435Z,7.60
2023-02-02T02:30:19.491Z,7.60
2023-02-02T02:30:40.666Z,7.60
2023-02-02T02:31:01.845Z,7.60
2023-02-02T02:31:23.021Z,7.60
2023-02-02T02:31:44.179Z,7.60
2023-02-02T02:32:05.241Z,7.60
2023-02-02T02:32:26.299Z,7.60
2023-02-02T02:32:47.377Z,7.59
2023-02-02T02:33:08.422Z,7.59
2023-02-02T02:33:29.472Z,7.60
2023-02-02T02:33:50.566Z,7.59
2023-02-02T02:34:11.581Z,7.59
2023-02-02T02:34:34.727Z,7.58
2023-02-02T02:34:55.800Z,7.58
2023-02-02T02:35:16.874Z,7.58
2023-02-02T02:35:37.913Z,7.58
2023-02-02T02:35:59.039Z,7.58
2023-02-02T02:36:20.052Z,7.58
2023-02-02T02:36:41.113Z,7.57
2023-02-02T02:37:02.171Z,7.57
2023-02-02T02:37:23.221Z,7.58
2023-02-02T02:37:44.278Z,7.57
2023-02-02T02:38:07.212Z,7.57
2023-02-02T02:38:28.314Z,7.57
2023-02-02T02:38:49.391Z,7.57
2023-02-02T02:39:10.450Z,7.58
2023-02-02T02:39:31.506Z,7.57
2023-02-02T02:39:52.565Z,7.57
2023-02-02T02:40:13.612Z,7.56
2023-02-02T02:40:34.701Z,7.57
2023-02-02T02:40:55.785Z,7.56
2023-02-02T02:41:16.824Z,7.56
2023-02-02T02:41:37.913Z,7.57
2023-02-02T02:41:58.980Z,7.56
2023-02-02T02:42:20.030Z,7.56
2023-02-02T02:42:41.073Z,7.56
2023-02-02T02:43:02.148Z,7.56
2023-02-02T02:43:25.164Z,7.56
2023-02-02T02:43:46.234Z,7.56
2023-02-02T02:44:07.303Z,7.56
2023-02-02T02:44:28.345Z,7.55
2023-02-02T02:44:49.405Z,7.55
2023-02-02T02:45:10.506Z,7.55
2023-02-02T02:45:31.542Z,7.55
2023-02-02T02:45:52.671Z,7.54
2023-02-02T02:46:13.851Z,7.55
2023-02-02T02:46:34.899Z,7.55
2023-02-02T02:46:55.948Z,7.55
2023-02-02T02:47:17.001Z,7.55
2023-02-02T02:47:38.065Z,7.54
2023-02-02T02:47:59.109Z,7.55
2023-02-02T02:48:22.242Z,7.54
2023-02-02T02:48:43.285Z,7.54
2023-02-02T02:49:04.349Z,7.55
2023-02-02T02:49:25.410Z,7.54
2023-02-02T02:49:46.481Z,7.54
2023-02-02T02:50:07.518Z,7.53
2023-02-02T02:50:28.567Z,7.54
2023-02-02T02:50:49.662Z,7.54
2023-02-02T02:51:10.677Z,7.54
2023-02-02T02:51:31.748Z,7.54
2023-02-02T02:51:52.798Z,7.54
2023-02-02T02:52:13.879Z,7.54
2023-02-02T02:52:34.916Z,7.54
2023-02-02T02:52:55.972Z,7.53
2023-02-02T02:53:17.014Z,7.53
2023-02-02T02:53:40.286Z,7.53
2023-02-02T02:54:01.366Z,7.52
2023-02-02T02:54:22.425Z,7.53
2023-02-02T02:54:43.504Z,7.52
2023-02-02T02:55:04.555Z,7.52
2023-02-02T02:55:25.900Z,7.53
2023-02-02T02:55:47.077Z,7.52
2023-02-02T02:56:08.125Z,7.52
2023-02-02T02:56:29.223Z,7.51
2023-02-02T02:56:50.251Z,7.52
2023-02-02T02:57:11.322Z,7.52
2023-02-02T02:57:32.382Z,7.52
2023-02-02T02:57:53.448Z,7.51
2023-02-02T02:58:14.534Z,7.51
2023-02-02T02:58:35.620Z,7.51
2023-02-02T02:58:58.456Z,7.51
2023-02-02T02:59:19.532Z,7.51
2023-02-02T02:59:40.567Z,7.50
2023-02-02T03:00:01.639Z,7.51
2023-02-02T03:00:22.693Z,7.51
2023-02-02T03:00:43.764Z,7.51
2023-02-02T03:01:04.801Z,7.51
2023-02-02T03:01:25.913Z,7.51
2023-02-02T03:01:47.014Z,7.51
2023-02-02T03:02:08.077Z,7.50
2023-02-02T03:02:29.235Z,7.50
2023-02-02T03:02:50.325Z,7.50
2023-02-02T03:03:11.405Z,7.50
2023-02-02T03:03:32.437Z,7.49
2023-02-02T03:03:53.500Z,7.49
2023-02-02T03:04:16.728Z,7.49
2023-02-02T03:04:37.767Z,7.50
2023-02-02T03:04:58.828Z,7.50
2023-02-02T03:05:19.906Z,7.50
2023-02-02T03:05:40.950Z,7.50
2023-02-02T03:06:01.998Z,7.50
2023-02-02T03:06:23.058Z,7.50
2023-02-02T03:06:44.104Z,7.49
2023-02-02T03:07:05.186Z,7.49
2023-02-02T03:07:26.253Z,7.49
2023-02-02T03:07:47.339Z,7.50
2023-02-02T03:08:08.413Z,7.50
2023-02-02T03:08:29.425Z,7.50
2023-02-02T03:08:50.483Z,7.50
2023-02-02T03:09:13.771Z,7.50
2023-02-02T03:09:34.840Z,7.50
2023-02-02T03:09:55.870Z,7.50
2023-02-02T03:10:16.949Z,7.49
2023-02-02T03:10:38.024Z,7.50
2023-02-02T03:10:59.069Z,7.50
2023-02-02T03:11:20.120Z,7.50
2023-02-02T03:11:41.166Z,7.50
2023-02-02T03:12:02.221Z,7.49
2023-02-02T03:12:23.285Z,7.50
2023-02-02T03:12:44.336Z,7.50
2023-02-02T03:13:05.403Z,7.50
2023-02-02T03:13:26.447Z,7.50
2023-02-02T03:13:47.503Z,7.50
2023-02-02T03:14:08.562Z,7.50
2023-02-02T03:14:31.626Z,7.50
2023-02-02T03:14:52.685Z,7.51
2023-02-02T03:15:13.781Z,7.50
2023-02-02T03:15:34.851Z,7.51
2023-02-02T03:15:56.004Z,7.51
2023-02-02T03:16:17.062Z,7.51
2023-02-02T03:16:38.141Z,7.51
2023-02-02T03:16:59.174Z,7.51
2023-02-02T03:17:20.256Z,7.51
2023-02-02T03:17:41.303Z,7.51
2023-02-02T03:18:02.379Z,7.51
2023-02-02T03:18:23.444Z,7.50
2023-02-02T03:18:44.485Z,7.50
2023-02-02T03:19:05.540Z,7.50
2023-02-02T03:19:26.597Z,7.50
2023-02-02T03:19:49.694Z,7.50
2023-02-02T03:20:10.758Z,7.51
2023-02-02T03:20:31.817Z,7.50
2023-02-02T03:20:52.880Z,7.50
2023-02-02T03:21:13.922Z,7.50
2023-02-02T03:21:34.981Z,7.50
2023-02-02T03:21:56.083Z,7.50
2023-02-02T03:22:17.128Z,7.50
2023-02-02T03:22:38.178Z,7.50
2023-02-02T03:22:59.230Z,7.50
2023-02-02T03:23:20.284Z,7.51
2023-02-02T03:23:41.343Z,7.50
2023-02-02T03:24:02.436Z,7.50
2023-02-02T03:24:23.468Z,7.51
2023-02-02T03:24:44.529Z,7.51
2023-02-02T03:25:07.407Z,7.50
2023-02-02T03:25:28.461Z,7.50
2023-02-02T03:25:49.531Z,7.50
2023-02-02T03:26:10.582Z,7.50
2023-02-02T03:26:31.686Z,7.51
2023-02-02T03:26:52.879Z,7.50
2023-02-02T03:27:13.943Z,7.51
2023-02-02T03:27:34.981Z,7.51
2023-02-02T03:27:56.030Z,7.51
2023-02-02T03:28:17.107Z,7.52
2023-02-02T03:28:38.135Z,7.51
2023-02-02T03:28:59.194Z,7.50
2023-02-02T03:29:20.287Z,7.51
2023-02-02T03:29:41.339Z,7.51
2023-02-02T03:30:02.409Z,7.51
2023-02-02T03:30:25.697Z,7.51
2023-02-02T03:30:46.856Z,7.51
2023-02-02T03:31:08.125Z,7.50
2023-02-02T03:31:29.193Z,7.51
2023-02-02T03:31:50.245Z,7.51
2023-02-02T03:32:11.282Z,7.50
2023-02-02T03:32:32.477Z,7.51
2023-02-02T03:32:53.509Z,7.51
2023-02-02T03:33:14.563Z,7.51
2023-02-02T03:33:35.619Z,7.51
2023-02-02T03:33:56.666Z,7.51
2023-02-02T03:34:17.734Z,7.52
2023-02-02T03:34:38.785Z,7.51
2023-02-02T03:34:59.843Z,7.50
2023-02-02T03:35:20.905Z,7.51
2023-02-02T03:35:44.217Z,7.51
2023-02-02T03:36:05.230Z,7.51
2023-02-02T03:36:26.297Z,7.51
2023-02-02T03:36:47.369Z,7.51
2023-02-02T03:37:08.415Z,7.51
2023-02-02T03:37:29.474Z,7.52
2023-02-02T03:37:50.554Z,7.51
2023-02-02T03:38:11.620Z,7.52
2023-02-02T03:38:32.691Z,7.52
2023-02-02T03:38:53.744Z,7.52
2023-02-02T03:39:14.792Z,7.52
2023-02-02T03:39:35.848Z,7.52
2023-02-02T03:39:56.900Z,7.52
2023-02-02T03:40:17.975Z,7.54
2023-02-02T03:40:39.012Z,7.53
2023-02-02T03:41:02.198Z,7.53
2023-02-02T03:41:23.226Z,7.54
2023-02-02T03:41:44.293Z,7.53
2023-02-02T03:42:05.345Z,7.54
2023-02-02T03:42:26.409Z,7.54
2023-02-02T03:42:47.456Z,7.54
2023-02-02T03:43:08.508Z,7.54
2023-02-02T03:43:29.580Z,7.54
2023-02-02T03:43:50.626Z,7.53
2023-02-02T03:44:11.674Z,7.55
2023-02-02T03:44:32.745Z,7.54
2023-02-02T03:44:53.795Z,7.54
2023-02-02T03:45:14.857Z,7.54
2023-02-02T03:45:35.912Z,7.54
2023-02-02T03:45:56.969Z,7.55
2023-02-02T03:46:19.923Z,7.55
2023-02-02T03:46:41.006Z,7.55
2023-02-02T03:47:02.048Z,7.55
2023-02-02T03:47:23.094Z,7.55
2023-02-02T03:47:44.146Z,7.54
2023-02-02T03:48:05.261Z,7.55
2023-02-02T03:48:26.292Z,7.55
2023-02-02T03:48:47.368Z,7.55
2023-02-02T03:49:08.446Z,7.55
2023-02-02T03:49:29.492Z,7.55
2023-02-02T03:49:50.550Z,7.55
2023-02-02T03:50:11.644Z,7.55
2023-02-02T03:50:32.748Z,7.56
2023-02-02T03:50:53.777Z,7.56
2023-02-02T03:51:14.850Z,7.56
2023-02-02T03:51:38.155Z,7.56
2023-02-02T03:51:59.219Z,7.56
2023-02-02T03:52:20.276Z,7.57
2023-02-02T03:52:41.354Z,7.57
2023-02-02T03:53:02.434Z,7.57
2023-02-02T03:53:23.469Z,7.57
2023-02-02T03:53:44.555Z,7.57
2023-02-02T03:54:05.601Z,7.57
2023-02-02T03:54:26.645Z,7.57
2023-02-02T03:54:47.695Z,7.57
2023-02-02T03:55:08.737Z,7.57
2023-02-02T03:55:29.802Z,7.58
2023-02-02T03:55:50.882Z,7.58
2023-02-02T03:56:11.918Z,7.57
2023-02-02T03:56:32.974Z,7.58
2023-02-02T03:56:56.122Z,7.58
2023-02-02T03:57:17.189Z,7.57
2023-02-02T03:57:38.231Z,7.57
2023-02-02T03:57:59.299Z,7.57
2023-02-02T03:58:20.397Z,7.58
2023-02-02T03:58:41.451Z,7.59
2023-02-02T03:59:02.500Z,7.57
2023-02-02T03:59:23.581Z,7.58
2023-02-02T03:59:44.605Z,7.59
2023-02-02T04:00:05.658Z,7.58
2023-02-02T04:00:26.721Z,7.59
2023-02-02T04:00:47.764Z,7.59
2023-02-02T04:01:08.828Z,7.59
2023-02-02T04:01:29.975Z,7.59
2023-02-02T04:01:51.055Z,7.60
2023-02-02T04:02:13.887Z,7.59
2023-02-02T04:02:34.984Z,7.59
2023-02-02T04:02:56.079Z,7.59
2023-02-02T04:03:17.176Z,7.59
2023-02-02T04:03:38.287Z,7.61
2023-02-02T04:03:59.338Z,7.60
2023-02-02T04:04:20.373Z,7.60
2023-02-02T04:04:41.434Z,7.60
2023-02-02T04:05:02.520Z,7.60
2023-02-02T04:05:23.950Z,7.60
2023-02-02T04:05:45.111Z,7.60
2023-02-02T04:06:06.216Z,7.60
2023-02-02T04:06:27.231Z,7.60
2023-02-02T04:06:48.316Z,7.60
2023-02-02T04:07:09.346Z,7.60
2023-02-02T04:07:32.623Z,7.60
2023-02-02T04:07:53.694Z,7.59
2023-02-02T04:08:14.747Z,7.60
2023-02-02T04:08:35.806Z,7.60
2023-02-02T04:08:56.917Z,7.60
2023-02-02T04:09:17.946Z,7.60
2023-02-02T04:09:39.005Z,7.59
2023-02-02T04:10:00.067Z,7.60
2023-02-02T04:10:21.117Z,7.59
2023-02-02T04:10:42.210Z,7.59
2023-02-02T04:11:03.255Z,7.59
2023-02-02T04:11:24.311Z,7.59
2023-02-02T04:11:45.375Z,7.59
2023-02-02T04:12:06.451Z,7.59
2023-02-02T04:12:27.485Z,7.60
2023-02-02T04:12:50.614Z,7.59
2023-02-02T04:13:11.699Z,7.60
2023-02-02T04:13:32.727Z,7.60
2023-02-02T04:13:53.811Z,7.59
2023-02-02T04:14:14.863Z,7.60
2023-02-02T04:14:35.936Z,7.61
2023-02-02T04:14:56.973Z,7.61
2023-02-02T04:15:18.050Z,7.60
2023-02-02T04:15:39.103Z,7.60
2023-02-02T04:16:00.351Z,7.60
2023-02-02T04:16:21.446Z,7.60
2023-02-02T04:16:42.483Z,7.60
2023-02-02T04:17:03.531Z,7.60
2023-02-02T04:17:24.644Z,7.60
2023-02-02T04:17:45.655Z,7.60
2023-02-02T04:18:08.633Z,7.60
2023-02-02T04:18:29.676Z,7.60
2023-02-02T04:18:50.716Z,7.60
2023-02-02T04:19:11.780Z,7.59
2023-02-02T04:19:32.834Z,7.59
2023-02-02T04:19:53.893Z,7.59
2023-02-02T04:20:14.941Z,7.59
2023-02-02T04:20:35.996Z,7.59
2023-02-02T04:20:57.052Z,7.59
2023-02-02T04:21:18.137Z,7.59
2023-02-02T04:21:39.181Z,7.59
2023-02-02T04:22:00.245Z,7.59
2023-02-02T04:22:21.300Z,7.59
2023-02-02T04:22:42.365Z,7.60
2023-02-02T04:23:03.407Z,7.59
2023-02-02T04:23:26.610Z,7.59
2023-02-02T04:23:47.681Z,7.59
2023-02-02T04:24:08.773Z,7.59
2023-02-02T04:24:29.788Z,7.58
2023-02-02T04:24:50.870Z,7.60
2023-02-02T04:25:11.905Z,7.59
2023-02-02T04:25:32.972Z,7.59
2023-02-02T04:25:54.018Z,7.59
2023-02-02T04:26:15.077Z,7.59
2023-02-02T04:26:36.158Z,7.59
2023-02-02T04:26:57.327Z,7.60
2023-02-02T04:27:18.355Z,7.59
2023-02-02T04:27:39.415Z,7.60
2023-02-02T04:28:00.453Z,7.61
2023-02-02T04:28:21.527Z,7.61
2023-02-02T04:28:44.595Z,7.61
2023-02-02T04:29:05.651Z,7.61
2023-02-02T04:29:26.711Z,7.61
2023-02-02T04:29:47.803Z,7.60
2023-02-02T04:30:08.820Z,7.61
2023-02-02T04:30:29.876Z,7.61
2023-02-02T04:30:50.968Z,7.61
2023-02-02T04:31:12.123Z,7.61
2023-02-02T04:31:33.293Z,7.61
2023-02-02T04:31:54.477Z,7.62
2023-02-02T04:32:15.545Z,7.61
2023-02-02T04:32:36.613Z,7.62
2023-02-02T04:32:57.666Z,7.61
2023-02-02T04:33:18.707Z,7.61
2023-02-02T04:33:39.766Z,7.62
2023-02-02T04:34:03.099Z,7.62
2023-02-02T04:34:24.152Z,7.62
2023-02-02T04:34:45.209Z,7.62
2023-02-02T04:35:06.257Z,7.62
2023-02-02T04:35:27.506Z,7.62
2023-02-02T04:35:48.595Z,7.62
2023-02-02T04:36:09.653Z,7.62
2023-02-02T04:36:30.709Z,7.62
2023-02-02T04:36:51.763Z,7.63
2023-02-02T04:37:12.820Z,7.62
2023-02-02T04:37:33.874Z,7.62
2023-02-02T04:37:55.128Z,7.62
2023-02-02T04:38:16.148Z,7.62
2023-02-02T04:38:37.197Z,7.63
2023-02-02T04:38:58.270Z,7.63
2023-02-02T04:39:21.577Z,7.63
2023-02-02T04:39:42.635Z,7.63
2023-02-02T04:40:03.732Z,7.63
2023-02-02T04:40:24.779Z,7.63
2023-02-02T04:40:45.816Z,7.63
2023-02-02T04:41:06.872Z,7.63
2023-02-02T04:41:27.939Z,7.64
2023-02-02T04:41:49.008Z,7.64